sensor_id;sensor_type;location;lat;lon;timestamp;pressure;altitude;pressure_sealevel;temperature;humidity
74045;BME280;62389;51.412;5.436;2023-05-01T00:01:13;101605.25;;;12.95;61.14
74045;BME280;62389;51.412;5.436;2023-05-01T00:03:39;101607.06;;;12.93;62.31
74045;BME280;62389;51.412;5.436;2023-05-01T00:06:04;101594.97;;;12.89;61.20
74045;BME280;62389;51.412;5.436;2023-05-01T00:08:30;101597.72;;;12.86;60.87
74045;BME280;62389;51.412;5.436;2023-05-01T00:10:56;101593.44;;;12.84;62.09
74045;BME280;62389;51.412;5.436;2023-05-01T00:13:21;101589.19;;;12.81;64.06
74045;BME280;62389;51.412;5.436;2023-05-01T00:15:48;101589.31;;;12.78;60.73
74045;BME280;62389;51.412;5.436;2023-05-01T00:18:14;101578.03;;;12.76;62.27
74045;BME280;62389;51.412;5.436;2023-05-01T00:20:39;101579.91;;;12.73;62.81
74045;BME280;62389;51.412;5.436;2023-05-01T00:23:05;101581.88;;;12.67;62.91
74045;BME280;62389;51.412;5.436;2023-05-01T00:25:31;101583.75;;;12.64;65.24
74045;BME280;62389;51.412;5.436;2023-05-01T00:27:56;101576.03;;;12.61;65.86
74045;BME280;62389;51.412;5.436;2023-05-01T00:30:23;101577.97;;;12.56;65.21
74045;BME280;62389;51.412;5.436;2023-05-01T00:32:49;101581.50;;;12.55;66.86
74045;BME280;62389;51.412;5.436;2023-05-01T00:35:14;101565.03;;;12.51;65.44
74045;BME280;62389;51.412;5.436;2023-05-01T00:37:40;101569.56;;;12.48;64.65
74045;BME280;62389;51.412;5.436;2023-05-01T00:40:07;101560.91;;;12.46;66.17
74045;BME280;62389;51.412;5.436;2023-05-01T00:42:36;101557.47;;;12.43;66.37
74045;BME280;62389;51.412;5.436;2023-05-01T00:45:07;101554.06;;;12.41;65.29
74045;BME280;62389;51.412;5.436;2023-05-01T00:47:35;101557.59;;;12.40;63.68
74045;BME280;62389;51.412;5.436;2023-05-01T00:50:02;101555.03;;;12.39;65.67
74045;BME280;62389;51.412;5.436;2023-05-01T00:52:28;101550.75;;;12.36;68.11
74045;BME280;62389;51.412;5.436;2023-05-01T00:54:53;101544.78;;;12.33;67.16
74045;BME280;62389;51.412;5.436;2023-05-01T00:57:20;101542.34;;;12.28;65.78
74045;BME280;62389;51.412;5.436;2023-05-01T00:59:46;101540.63;;;12.27;65.15
74045;BME280;62389;51.412;5.436;2023-05-01T01:02:12;101534.66;;;12.24;64.88
74045;BME280;62389;51.412;5.436;2023-05-01T01:04:39;101526.91;;;12.21;65.18
74045;BME280;62389;51.412;5.436;2023-05-01T01:10:15;101521.59;;;12.22;65.45
74045;BME280;62389;51.412;5.436;2023-05-01T01:12:53;101520.81;;;12.20;64.94
74045;BME280;62389;51.412;5.436;2023-05-01T01:18:12;101511.22;;;12.19;64.66
74045;BME280;62389;51.412;5.436;2023-05-01T01:20:52;101511.28;;;12.17;65.44
74045;BME280;62389;51.412;5.436;2023-05-01T01:26:31;101493.03;;;12.14;64.54
74045;BME280;62389;51.412;5.436;2023-05-01T01:31:59;101490.63;;;12.10;64.84
74045;BME280;62389;51.412;5.436;2023-05-01T01:34:46;101490.63;;;12.10;67.13
74045;BME280;62389;51.412;5.436;2023-05-01T01:37:45;101494.28;;;12.06;67.10
74045;BME280;62389;51.412;5.436;2023-05-01T01:40:14;101478.66;;;12.03;66.79
74045;BME280;62389;51.412;5.436;2023-05-01T01:42:44;101477.81;;;12.02;66.15
74045;BME280;62389;51.412;5.436;2023-05-01T01:45:20;101470.00;;;12.01;66.71
74045;BME280;62389;51.412;5.436;2023-05-01T01:47:48;101477.88;;;12.01;66.71
74045;BME280;62389;51.412;5.436;2023-05-01T01:50:17;101467.50;;;11.98;66.81
74045;BME280;62389;51.412;5.436;2023-05-01T01:52:46;101465.88;;;11.95;66.99
74045;BME280;62389;51.412;5.436;2023-05-01T01:55:14;101469.38;;;11.94;66.44
74045;BME280;62389;51.412;5.436;2023-05-01T01:57:43;101468.66;;;11.90;67.54
74045;BME280;62389;51.412;5.436;2023-05-01T02:00:11;101468.66;;;11.90;69.16
74045;BME280;62389;51.412;5.436;2023-05-01T02:02:38;101457.44;;;11.87;66.96
74045;BME280;62389;51.412;5.436;2023-05-01T02:05:10;101460.13;;;11.85;66.35
74045;BME280;62389;51.412;5.436;2023-05-01T02:07:38;101461.03;;;11.84;68.41
74045;BME280;62389;51.412;5.436;2023-05-01T02:10:05;101451.44;;;11.83;66.84
74045;BME280;62389;51.412;5.436;2023-05-01T02:12:33;101452.31;;;11.84;68.01
74045;BME280;62389;51.412;5.436;2023-05-01T02:14:59;101450.44;;;11.87;66.09
74045;BME280;62389;51.412;5.436;2023-05-01T02:17:25;101455.00;;;11.82;69.44
74045;BME280;62389;51.412;5.436;2023-05-01T02:19:54;101446.31;;;11.80;67.39
74045;BME280;62389;51.412;5.436;2023-05-01T02:22:21;101444.59;;;11.79;69.24
74045;BME280;62389;51.412;5.436;2023-05-01T02:24:47;101443.88;;;11.76;70.39
74045;BME280;62389;51.412;5.436;2023-05-01T02:27:27;101436.06;;;11.74;70.42
74045;BME280;62389;51.412;5.436;2023-05-01T02:29:55;101430.09;;;11.71;70.01
74045;BME280;62389;51.412;5.436;2023-05-01T02:32:20;101432.75;;;11.69;68.69
74045;BME280;62389;51.412;5.436;2023-05-01T02:34:45;101427.50;;;11.69;70.31
74045;BME280;62389;51.412;5.436;2023-05-01T02:37:11;101432.03;;;11.65;71.00
74045;BME280;62389;51.412;5.436;2023-05-01T02:39:38;101422.53;;;11.63;69.42
74045;BME280;62389;51.412;5.436;2023-05-01T02:42:05;101413.81;;;11.62;70.77
74045;BME280;62389;51.412;5.436;2023-05-01T02:44:44;101414.66;;;11.63;70.63
74045;BME280;62389;51.412;5.436;2023-05-01T02:47:14;101419.13;;;11.61;71.08
74045;BME280;62389;51.412;5.436;2023-05-01T02:49:41;101411.28;;;11.59;69.66
74045;BME280;62389;51.412;5.436;2023-05-01T02:52:09;101412.19;;;11.60;71.69
74045;BME280;62389;51.412;5.436;2023-05-01T02:54:35;101406.97;;;11.58;71.23
74045;BME280;62389;51.412;5.436;2023-05-01T02:57:03;101402.72;;;11.56;68.95
74045;BME280;62389;51.412;5.436;2023-05-01T02:59:29;101398.41;;;11.55;69.51
74045;BME280;62389;51.412;5.436;2023-05-01T03:01:55;101401.03;;;11.55;71.68
74045;BME280;62389;51.412;5.436;2023-05-01T03:04:20;101396.66;;;11.54;71.62
74045;BME280;62389;51.412;5.436;2023-05-01T03:06:45;101391.56;;;11.51;71.39
74045;BME280;62389;51.412;5.436;2023-05-01T03:09:11;101393.34;;;11.50;70.07
74045;BME280;62389;51.412;5.436;2023-05-01T03:11:36;101389.91;;;11.48;70.48
74045;BME280;62389;51.412;5.436;2023-05-01T03:14:02;101384.72;;;11.47;72.55
74045;BME280;62389;51.412;5.436;2023-05-01T03:16:27;101378.72;;;11.45;70.04
74045;BME280;62389;51.412;5.436;2023-05-01T03:18:52;101378.75;;;11.43;69.19
74045;BME280;62389;51.412;5.436;2023-05-01T03:21:18;101376.09;;;11.45;68.57
74045;BME280;62389;51.412;5.436;2023-05-01T03:23:43;101373.47;;;11.45;70.44
74045;BME280;62389;51.412;5.436;2023-05-01T03:26:08;101368.34;;;11.41;70.25
74045;BME280;62389;51.412;5.436;2023-05-01T03:28:34;101362.28;;;11.39;71.36
74045;BME280;62389;51.412;5.436;2023-05-01T03:30:59;101363.28;;;11.37;72.63
74045;BME280;62389;51.412;5.436;2023-05-01T03:33:25;101355.59;;;11.32;72.92
74045;BME280;62389;51.412;5.436;2023-05-01T03:36:01;101360.09;;;11.29;72.42
74045;BME280;62389;51.412;5.436;2023-05-01T03:38:27;101362.84;;;11.26;72.54
74045;BME280;62389;51.412;5.436;2023-05-01T03:40:53;101357.66;;;11.24;73.51
74045;BME280;62389;51.412;5.436;2023-05-01T03:43:18;101364.72;;;11.22;73.22
74045;BME280;62389;51.412;5.436;2023-05-01T03:45:44;101347.31;;;11.21;72.20
74045;BME280;62389;51.412;5.436;2023-05-01T03:48:09;101350.84;;;11.20;72.27
74045;BME280;62389;51.412;5.436;2023-05-01T03:50:35;101350.00;;;11.20;73.40
74045;BME280;62389;51.412;5.436;2023-05-01T03:53:00;101350.88;;;11.19;71.85
74045;BME280;62389;51.412;5.436;2023-05-01T03:55:26;101345.72;;;11.17;72.46
74045;BME280;62389;51.412;5.436;2023-05-01T03:57:51;101342.31;;;11.15;72.61
74045;BME280;62389;51.412;5.436;2023-05-01T04:00:17;101349.34;;;11.13;71.47
74045;BME280;62389;51.412;5.436;2023-05-01T04:02:42;101340.81;;;11.08;71.22
74045;BME280;62389;51.412;5.436;2023-05-01T04:05:08;101343.75;;;11.00;72.87
74045;BME280;62389;51.412;5.436;2023-05-01T04:07:33;101329.97;;;10.95;72.00
74045;BME280;62389;51.412;5.436;2023-05-01T04:09:59;101347.53;;;10.92;73.81
74045;BME280;62389;51.412;5.436;2023-05-01T04:12:24;101348.47;;;10.91;74.98
74045;BME280;62389;51.412;5.436;2023-05-01T04:14:49;101346.78;;;10.88;75.11
74045;BME280;62389;51.412;5.436;2023-05-01T04:17:15;101348.56;;;10.87;75.60
74045;BME280;62389;51.412;5.436;2023-05-01T04:19:40;101340.84;;;10.84;73.65
74045;BME280;62389;51.412;5.436;2023-05-01T04:22:05;101342.63;;;10.82;75.95
74045;BME280;62389;51.412;5.436;2023-05-01T04:24:31;101357.66;;;10.77;72.83
74045;BME280;62389;51.412;5.436;2023-05-01T04:26:56;101367.66;;;10.66;72.47
74045;BME280;62389;51.412;5.436;2023-05-01T04:29:22;101363.44;;;10.62;75.00
74045;BME280;62389;51.412;5.436;2023-05-01T04:31:48;101359.88;;;10.65;74.46
74045;BME280;62389;51.412;5.436;2023-05-01T04:34:13;101359.75;;;10.68;74.11
74045;BME280;62389;51.412;5.436;2023-05-01T04:36:39;101363.22;;;10.68;74.91
74045;BME280;62389;51.412;5.436;2023-05-01T04:39:04;101356.22;;;10.69;75.45
74045;BME280;62389;51.412;5.436;2023-05-01T04:41:30;101358.66;;;10.73;75.15
74045;BME280;62389;51.412;5.436;2023-05-01T04:43:55;101357.81;;;10.73;75.56
74045;BME280;62389;51.412;5.436;2023-05-01T04:46:20;101351.72;;;10.72;75.98
74045;BME280;62389;51.412;5.436;2023-05-01T04:48:46;101358.72;;;10.72;76.30
74045;BME280;62389;51.412;5.436;2023-05-01T04:51:11;101358.66;;;10.73;75.06
74045;BME280;62389;51.412;5.436;2023-05-01T04:53:36;101356.03;;;10.75;74.80
74045;BME280;62389;51.412;5.436;2023-05-01T04:56:02;101354.25;;;10.75;76.04
74045;BME280;62389;51.412;5.436;2023-05-01T04:58:28;101342.88;;;10.76;74.62
74045;BME280;62389;51.412;5.436;2023-05-01T05:00:53;101351.50;;;10.78;76.58
74045;BME280;62389;51.412;5.436;2023-05-01T05:03:18;101352.41;;;10.77;76.85
74045;BME280;62389;51.412;5.436;2023-05-01T05:05:44;101353.25;;;10.79;76.99
74045;BME280;62389;51.412;5.436;2023-05-01T05:08:10;101353.25;;;10.79;76.55
74045;BME280;62389;51.412;5.436;2023-05-01T05:10:36;101354.88;;;10.82;77.62
74045;BME280;62389;51.412;5.436;2023-05-01T05:13:01;101351.34;;;10.83;78.21
74045;BME280;62389;51.412;5.436;2023-05-01T05:15:26;101356.47;;;10.86;78.73
74045;BME280;62389;51.412;5.436;2023-05-01T05:17:52;101350.25;;;10.88;77.46
74045;BME280;62389;51.412;5.436;2023-05-01T05:20:17;101352.00;;;10.89;78.02
74045;BME280;62389;51.412;5.436;2023-05-01T05:22:42;101345.72;;;10.94;78.10
74045;BME280;62389;51.412;5.436;2023-05-01T05:25:08;101349.06;;;10.97;78.23
74045;BME280;62389;51.412;5.436;2023-05-01T05:27:33;101339.34;;;11.01;78.33
74045;BME280;62389;51.412;5.436;2023-05-01T05:30:05;101341.66;;;11.08;78.44
74045;BME280;62389;51.412;5.436;2023-05-01T05:32:31;101335.34;;;11.14;78.96
74045;BME280;62389;51.412;5.436;2023-05-01T05:34:57;101343.78;;;11.22;78.38
74045;BME280;62389;51.412;5.436;2023-05-01T05:37:23;101342.69;;;11.28;77.99
74045;BME280;62389;51.412;5.436;2023-05-01T05:39:50;101334.53;;;11.35;78.55
74045;BME280;62389;51.412;5.436;2023-05-01T05:42:15;101339.47;;;11.43;78.90
74045;BME280;62389;51.412;5.436;2023-05-01T05:44:40;101338.25;;;11.52;78.58
74045;BME280;62389;51.412;5.436;2023-05-01T05:47:06;101340.63;;;11.58;78.74
74045;BME280;62389;51.412;5.436;2023-05-01T05:49:31;101341.28;;;11.63;78.10
74045;BME280;62389;51.412;5.436;2023-05-01T05:51:56;101347.19;;;11.68;78.79
74045;BME280;62389;51.412;5.436;2023-05-01T05:54:22;101342.59;;;11.75;79.19
74045;BME280;62389;51.412;5.436;2023-05-01T05:56:47;101341.47;;;11.80;76.71
74045;BME280;62389;51.412;5.436;2023-05-01T05:59:12;101337.78;;;11.86;75.64
74045;BME280;62389;51.412;5.436;2023-05-01T06:01:38;101338.56;;;11.88;74.95
74045;BME280;62389;51.412;5.436;2023-05-01T06:04:04;101340.22;;;11.90;74.05
74045;BME280;62389;51.412;5.436;2023-05-01T06:06:31;101337.53;;;11.92;75.12
74045;BME280;62389;51.412;5.436;2023-05-01T06:08:57;101325.94;;;11.98;73.94
74045;BME280;62389;51.412;5.436;2023-05-01T06:11:22;101329.13;;;12.04;74.30
74045;BME280;62389;51.412;5.436;2023-05-01T06:13:48;101333.22;;;12.11;75.75
74045;BME280;62389;51.412;5.436;2023-05-01T06:16:13;101332.88;;;12.19;73.67
74045;BME280;62389;51.412;5.436;2023-05-01T06:18:39;101336.91;;;12.28;73.27
74045;BME280;62389;51.412;5.436;2023-05-01T06:21:05;101336.81;;;12.29;69.98
74045;BME280;62389;51.412;5.436;2023-05-01T06:23:30;101339.31;;;12.32;70.70
74045;BME280;62389;51.412;5.436;2023-05-01T06:25:57;101338.94;;;12.41;72.98
74045;BME280;62389;51.412;5.436;2023-05-01T06:28:23;101330.72;;;12.49;71.63
74045;BME280;62389;51.412;5.436;2023-05-01T06:30:49;101330.41;;;12.57;70.47
74045;BME280;62389;51.412;5.436;2023-05-01T06:33:14;101337.00;;;12.65;69.46
74045;BME280;62389;51.412;5.436;2023-05-01T06:35:39;101333.31;;;12.69;68.55
74045;BME280;62389;51.412;5.436;2023-05-01T06:38:05;101328.78;;;12.73;68.65
74045;BME280;62389;51.412;5.436;2023-05-01T06:40:30;101331.41;;;12.73;69.57
74045;BME280;62389;51.412;5.436;2023-05-01T06:42:59;101322.56;;;12.76;70.52
74045;BME280;62389;51.412;5.436;2023-05-01T06:45:24;101325.03;;;12.79;70.11
74045;BME280;62389;51.412;5.436;2023-05-01T06:47:49;101325.03;;;12.79;68.29
74045;BME280;62389;51.412;5.436;2023-05-01T06:50:15;101321.44;;;12.81;68.84
74045;BME280;62389;51.412;5.436;2023-05-01T06:52:40;101329.88;;;12.88;72.01
74045;BME280;62389;51.412;5.436;2023-05-01T06:55:06;101321.56;;;12.97;69.18
74045;BME280;62389;51.412;5.436;2023-05-01T06:57:31;101330.53;;;13.12;70.88
74045;BME280;62389;51.412;5.436;2023-05-01T06:59:57;101323.94;;;13.22;70.59
74045;BME280;62389;51.412;5.436;2023-05-01T07:02:22;101324.38;;;13.32;67.41
74045;BME280;62389;51.412;5.436;2023-05-01T07:04:47;101330.19;;;13.38;67.56
74045;BME280;62389;51.412;5.436;2023-05-01T07:07:13;101327.19;;;13.46;67.01
74045;BME280;62389;51.412;5.436;2023-05-01T07:09:39;101330.16;;;13.57;68.59
74045;BME280;62389;51.412;5.436;2023-05-01T07:12:05;101326.78;;;13.72;66.58
74045;BME280;62389;51.412;5.436;2023-05-01T07:14:30;101333.28;;;13.83;65.30
74045;BME280;62389;51.412;5.436;2023-05-01T07:16:55;101334.63;;;13.91;65.48
74045;BME280;62389;51.412;5.436;2023-05-01T07:19:21;101333.69;;;13.92;64.82
74045;BME280;62389;51.412;5.436;2023-05-01T07:21:46;101333.22;;;14.02;66.17
74045;BME280;62389;51.412;5.436;2023-05-01T07:24:12;101330.59;;;14.19;64.29
74045;BME280;62389;51.412;5.436;2023-05-01T07:26:37;101330.41;;;14.39;63.49
74045;BME280;62389;51.412;5.436;2023-05-01T07:29:03;101330.59;;;14.54;63.50
74045;BME280;62389;51.412;5.436;2023-05-01T07:31:29;101326.19;;;14.70;63.00
74045;BME280;62389;51.412;5.436;2023-05-01T07:33:54;101332.69;;;14.80;62.59
74045;BME280;62389;51.412;5.436;2023-05-01T07:36:19;101330.75;;;14.84;61.94
74045;BME280;62389;51.412;5.436;2023-05-01T07:38:47;101322.00;;;14.99;62.79
74045;BME280;62389;51.412;5.436;2023-05-01T07:41:12;101323.56;;;15.19;61.35
74045;BME280;62389;51.412;5.436;2023-05-01T07:43:37;101321.34;;;15.27;61.17
74045;BME280;62389;51.412;5.436;2023-05-01T07:46:03;101325.78;;;15.42;60.18
74045;BME280;62389;51.412;5.436;2023-05-01T07:48:30;101326.13;;;15.68;61.04
74045;BME280;62389;51.412;5.436;2023-05-01T07:50:56;101327.97;;;15.96;60.22
74045;BME280;62389;51.412;5.436;2023-05-01T07:53:22;101322.53;;;16.43;59.23
74045;BME280;62389;51.412;5.436;2023-05-01T07:55:47;101319.63;;;16.91;57.68
74045;BME280;62389;51.412;5.436;2023-05-01T07:58:14;101323.47;;;17.28;56.31
74045;BME280;62389;51.412;5.436;2023-05-01T08:00:39;101318.75;;;18.00;55.11
74045;BME280;62389;51.412;5.436;2023-05-01T08:03:05;101311.50;;;18.54;53.06
74045;BME280;62389;51.412;5.436;2023-05-01T08:05:30;101311.25;;;18.57;52.42
74045;BME280;62389;51.412;5.436;2023-05-01T08:07:56;101316.03;;;18.91;51.07
74045;BME280;62389;51.412;5.436;2023-05-01T08:10:22;101310.81;;;19.62;52.35
74045;BME280;62389;51.412;5.436;2023-05-01T08:12:47;101310.94;;;20.42;49.21
74045;BME280;62389;51.412;5.436;2023-05-01T08:15:13;101309.28;;;20.86;47.16
74045;BME280;62389;51.412;5.436;2023-05-01T08:17:38;101314.91;;;20.37;46.39
74045;BME280;62389;51.412;5.436;2023-05-01T08:20:04;101312.44;;;20.58;47.46
74045;BME280;62389;51.412;5.436;2023-05-01T08:22:29;101310.59;;;21.14;45.72
74045;BME280;62389;51.412;5.436;2023-05-01T08:24:56;101312.06;;;21.62;46.52
74045;BME280;62389;51.412;5.436;2023-05-01T08:27:21;101318.38;;;22.96;41.77
74045;BME280;62389;51.412;5.436;2023-05-01T08:29:47;101315.97;;;22.93;40.30
74045;BME280;62389;51.412;5.436;2023-05-01T08:32:13;101315.31;;;22.18;41.65
74045;BME280;62389;51.412;5.436;2023-05-01T08:34:39;101313.13;;;21.70;42.60
74045;BME280;62389;51.412;5.436;2023-05-01T08:37:04;101303.00;;;21.64;43.05
74045;BME280;62389;51.412;5.436;2023-05-01T08:39:29;101311.69;;;21.66;44.43
74045;BME280;62389;51.412;5.436;2023-05-01T08:41:55;101311.09;;;21.84;43.98
74045;BME280;62389;51.412;5.436;2023-05-01T08:44:24;101306.97;;;22.33;43.02
74045;BME280;62389;51.412;5.436;2023-05-01T08:47:18;101314.47;;;22.69;44.89
74045;BME280;62389;51.412;5.436;2023-05-01T08:49:44;101315.28;;;22.91;41.92
74045;BME280;62389;51.412;5.436;2023-05-01T08:52:12;101318.59;;;23.23;41.73
74045;BME280;62389;51.412;5.436;2023-05-01T08:54:40;101313.84;;;23.37;38.89
74045;BME280;62389;51.412;5.436;2023-05-01T08:57:08;101318.66;;;23.62;37.96
74045;BME280;62389;51.412;5.436;2023-05-01T08:59:34;101322.81;;;23.26;39.04
74045;BME280;62389;51.412;5.436;2023-05-01T09:02:01;101321.53;;;22.80;40.07
74045;BME280;62389;51.412;5.436;2023-05-01T09:04:35;101324.00;;;23.62;41.21
74045;BME280;62389;51.412;5.436;2023-05-01T09:07:01;101326.16;;;24.54;38.74
74045;BME280;62389;51.412;5.436;2023-05-01T09:09:28;101325.56;;;24.97;35.72
74045;BME280;62389;51.412;5.436;2023-05-01T09:12:20;101322.66;;;24.91;35.53
74045;BME280;62389;51.412;5.436;2023-05-01T09:14:47;101317.31;;;24.34;36.11
74045;BME280;62389;51.412;5.436;2023-05-01T09:17:12;101314.91;;;24.60;37.50
74045;BME280;62389;51.412;5.436;2023-05-01T09:19:39;101315.94;;;24.77;37.29
74045;BME280;62389;51.412;5.436;2023-05-01T09:22:06;101314.25;;;25.76;38.34
74045;BME280;62389;51.412;5.436;2023-05-01T09:24:31;101319.53;;;26.98;33.14
74045;BME280;62389;51.412;5.436;2023-05-01T09:26:57;101313.66;;;28.10;31.11
74045;BME280;62389;51.412;5.436;2023-05-01T09:32:23;101313.84;;;29.20;29.80
74045;BME280;62389;51.412;5.436;2023-05-01T09:34:51;101308.47;;;28.01;29.21
74045;BME280;62389;51.412;5.436;2023-05-01T09:37:28;101312.38;;;27.15;33.39
74045;BME280;62389;51.412;5.436;2023-05-01T09:40:10;101308.44;;;26.59;34.11
74045;BME280;62389;51.412;5.436;2023-05-01T09:42:37;101304.91;;;25.80;34.10
74045;BME280;62389;51.412;5.436;2023-05-01T09:45:05;101301.94;;;25.20;33.96
74045;BME280;62389;51.412;5.436;2023-05-01T09:47:35;101310.06;;;25.01;38.70
74045;BME280;62389;51.412;5.436;2023-05-01T09:50:02;101307.16;;;24.57;35.27
74045;BME280;62389;51.412;5.436;2023-05-01T09:52:29;101311.09;;;23.87;36.09
74045;BME280;62389;51.412;5.436;2023-05-01T09:55:14;101313.53;;;22.80;39.13
74045;BME280;62389;51.412;5.436;2023-05-01T09:57:41;101323.22;;;22.81;42.52
74045;BME280;62389;51.412;5.436;2023-05-01T10:00:11;101316.03;;;23.12;40.21
74045;BME280;62389;51.412;5.436;2023-05-01T10:02:39;101320.03;;;23.37;43.03
74045;BME280;62389;51.412;5.436;2023-05-01T10:05:05;101318.06;;;23.30;39.29
74045;BME280;62389;51.412;5.436;2023-05-01T10:07:32;101317.78;;;23.42;41.45
74045;BME280;62389;51.412;5.436;2023-05-01T10:09:57;101320.34;;;23.63;42.35
74045;BME280;62389;51.412;5.436;2023-05-01T10:12:27;101319.16;;;22.87;38.02
74045;BME280;62389;51.412;5.436;2023-05-01T10:14:55;101327.94;;;22.16;40.60
74045;BME280;62389;51.412;5.436;2023-05-01T10:17:21;101326.94;;;21.64;40.80
74045;BME280;62389;51.412;5.436;2023-05-01T10:19:47;101322.66;;;21.41;46.95
74045;BME280;62389;51.412;5.436;2023-05-01T10:22:13;101324.81;;;21.47;43.31
74045;BME280;62389;51.412;5.436;2023-05-01T10:24:39;101320.69;;;21.43;41.81
74045;BME280;62389;51.412;5.436;2023-05-01T10:27:05;101323.16;;;21.24;41.06
74045;BME280;62389;51.412;5.436;2023-05-01T10:29:33;101320.84;;;21.41;43.49
74045;BME280;62389;51.412;5.436;2023-05-01T10:31:59;101328.34;;;21.80;45.87
74045;BME280;62389;51.412;5.436;2023-05-01T10:34:26;101321.31;;;22.11;42.42
74045;BME280;62389;51.412;5.436;2023-05-01T10:37:01;101324.94;;;22.31;42.80
74045;BME280;62389;51.412;5.436;2023-05-01T10:39:29;101322.13;;;22.32;42.95
74045;BME280;62389;51.412;5.436;2023-05-01T10:42:07;101324.78;;;22.32;43.54
74045;BME280;62389;51.412;5.436;2023-05-01T10:44:35;101332.31;;;22.06;40.74
74045;BME280;62389;51.412;5.436;2023-05-01T10:50:07;101320.25;;;21.70;42.12
74045;BME280;62389;51.412;5.436;2023-05-01T10:55:38;101334.84;;;21.43;43.29
74045;BME280;62389;51.412;5.436;2023-05-01T10:58:06;101333.75;;;21.46;44.84
74045;BME280;62389;51.412;5.436;2023-05-01T11:00:32;101331.94;;;21.46;43.50
74045;BME280;62389;51.412;5.436;2023-05-01T11:08:35;101333.47;;;20.50;45.73
74045;BME280;62389;51.412;5.436;2023-05-01T11:14:08;101339.75;;;20.13;45.94
74045;BME280;62389;51.412;5.436;2023-05-01T11:21:33;101341.34;;;19.92;48.05
74045;BME280;62389;51.412;5.436;2023-05-01T11:24:00;101339.66;;;19.91;49.40
74045;BME280;62389;51.412;5.436;2023-05-01T11:26:27;101344.13;;;19.90;48.33
74045;BME280;62389;51.412;5.436;2023-05-01T11:28:53;101341.19;;;19.58;46.31
74045;BME280;62389;51.412;5.436;2023-05-01T11:31:19;101347.97;;;19.26;47.09
74045;BME280;62389;51.412;5.436;2023-05-01T11:33:45;101353.91;;;18.93;48.84
74045;BME280;62389;51.412;5.436;2023-05-01T11:36:11;101354.88;;;18.79;47.63
74045;BME280;62389;51.412;5.436;2023-05-01T11:38:36;101349.63;;;18.64;49.33
74045;BME280;62389;51.412;5.436;2023-05-01T11:41:02;101348.50;;;18.69;50.30
74045;BME280;62389;51.412;5.436;2023-05-01T11:43:28;101343.31;;;18.93;49.51
74045;BME280;62389;51.412;5.436;2023-05-01T11:45:54;101344.59;;;19.24;50.42
74045;BME280;62389;51.412;5.436;2023-05-01T11:48:22;101351.81;;;19.58;50.46
74045;BME280;62389;51.412;5.436;2023-05-01T11:50:47;101341.50;;;20.02;51.15
74045;BME280;62389;51.412;5.436;2023-05-01T11:53:14;101340.06;;;20.44;50.00
74045;BME280;62389;51.412;5.436;2023-05-01T11:55:40;101339.25;;;20.66;46.56
74045;BME280;62389;51.412;5.436;2023-05-01T11:58:05;101338.53;;;20.75;49.57
74045;BME280;62389;51.412;5.436;2023-05-01T12:00:32;101338.31;;;20.89;46.35
74045;BME280;62389;51.412;5.436;2023-05-01T12:03:06;101335.28;;;21.05;45.47
74045;BME280;62389;51.412;5.436;2023-05-01T12:05:33;101343.94;;;21.18;47.86
74045;BME280;62389;51.412;5.436;2023-05-01T12:10:38;101332.41;;;21.52;44.07
74045;BME280;62389;51.412;5.436;2023-05-01T12:13:06;101320.41;;;21.57;44.25
74045;BME280;62389;51.412;5.436;2023-05-01T12:15:36;101331.25;;;21.44;44.15
74045;BME280;62389;51.412;5.436;2023-05-01T12:18:05;101322.78;;;21.39;44.73
74045;BME280;62389;51.412;5.436;2023-05-01T12:20:38;101326.91;;;21.32;43.31
74045;BME280;62389;51.412;5.436;2023-05-01T12:23:05;101332.69;;;21.26;44.16
74045;BME280;62389;51.412;5.436;2023-05-01T12:25:31;101331.16;;;21.35;45.27
74045;BME280;62389;51.412;5.436;2023-05-01T12:27:59;101327.59;;;21.45;44.58
74045;BME280;62389;51.412;5.436;2023-05-01T12:30:26;101334.28;;;21.40;45.29
74045;BME280;62389;51.412;5.436;2023-05-01T12:32:52;101333.44;;;21.39;46.75
74045;BME280;62389;51.412;5.436;2023-05-01T12:35:17;101331.38;;;21.32;45.59
74045;BME280;62389;51.412;5.436;2023-05-01T12:37:43;101337.53;;;21.32;44.37
74045;BME280;62389;51.412;5.436;2023-05-01T12:40:14;101333.41;;;21.28;43.42
74045;BME280;62389;51.412;5.436;2023-05-01T12:42:41;101331.84;;;21.26;45.35
74045;BME280;62389;51.412;5.436;2023-05-01T12:45:07;101333.19;;;21.20;43.99
74045;BME280;62389;51.412;5.436;2023-05-01T12:47:35;101335.63;;;21.12;44.28
74045;BME280;62389;51.412;5.436;2023-05-01T12:50:02;101340.81;;;21.02;42.40
74045;BME280;62389;51.412;5.436;2023-05-01T12:52:28;101341.94;;;21.00;44.43
74045;BME280;62389;51.412;5.436;2023-05-01T12:55:01;101335.50;;;20.91;41.74
74045;BME280;62389;51.412;5.436;2023-05-01T12:57:27;101340.34;;;20.86;42.89
74045;BME280;62389;51.412;5.436;2023-05-01T12:59:58;101336.63;;;20.88;45.01
74045;BME280;62389;51.412;5.436;2023-05-01T13:02:29;101338.41;;;20.77;42.58
74045;BME280;62389;51.412;5.436;2023-05-01T13:05:05;101333.72;;;20.80;44.17
74045;BME280;62389;51.412;5.436;2023-05-01T13:07:32;101337.81;;;20.95;44.65
74045;BME280;62389;51.412;5.436;2023-05-01T13:09:58;101341.88;;;21.22;44.09
74045;BME280;62389;51.412;5.436;2023-05-01T13:12:24;101343.47;;;21.36;40.96
74045;BME280;62389;51.412;5.436;2023-05-01T13:14:51;101352.53;;;21.44;40.33
74045;BME280;62389;51.412;5.436;2023-05-01T13:19:53;101342.72;;;23.82;41.21
74045;BME280;62389;51.412;5.436;2023-05-01T13:22:39;101331.28;;;24.28;39.96
74045;BME280;62389;51.412;5.436;2023-05-01T13:25:16;101342.84;;;23.99;39.21
74045;BME280;62389;51.412;5.436;2023-05-01T13:27:51;101337.03;;;23.46;38.91
74045;BME280;62389;51.412;5.436;2023-05-01T13:30:30;101336.66;;;23.00;39.80